TimeEST,TemperatureF,Dew PointF,Humidity,Sea Level PressureIn,VisibilityMPH,Wind Direction,Wind SpeedMPH,Gust SpeedMPH,PrecipitationIn,Events,Conditions,WindDirDegrees,DateUTC
12:15 AM,32.2,32.0,99,30.49,10.0,Calm,Calm,-,N/A,,Clear,0,2013-01-19 05:15:00
12:35 AM,32.4,32.0,99,30.50,10.0,Calm,Calm,-,N/A,,Clear,0,2013-01-19 05:35:00
12:55 AM,32.0,31.8,99,30.49,10.0,Calm,Calm,-,N/A,,Clear,0,2013-01-19 05:55:00
1:15 AM,32.0,31.8,99,30.49,10.0,Calm,Calm,-,N/A,,Clear,0,2013-01-19 06:15:00
1:35 AM,32.0,31.6,99,30.48,10.0,Calm,Calm,-,N/A,,Clear,0,2013-01-19 06:35:00
1:55 AM,33.6,32.0,94,30.47,10.0,NE,3.5,-,N/A,,Clear,40,2013-01-19 06:55:00
2:15 AM,35.6,32.4,88,30.46,10.0,NE,3.5,-,N/A,,Clear,50,2013-01-19 07:15:00
2:35 AM,39.0,32.2,76,30.46,10.0,NE,5.8,-,N/A,,Clear,50,2013-01-19 07:35:00
2:55 AM,39.2,32.0,75,30.46,10.0,ENE,5.8,-,N/A,,Clear,60,2013-01-19 07:55:00
3:15 AM,39.2,32.0,75,30.46,10.0,ENE,5.8,-,N/A,,Clear,60,2013-01-19 08:15:00
3:35 AM,39.2,32.0,75,30.45,10.0,ENE,4.6,-,N/A,,Clear,60,2013-01-19 08:35:00
3:55 AM,38.3,32.0,78,30.45,10.0,NE,3.5,-,N/A,,Clear,50,2013-01-19 08:55:00
4:15 AM,37.4,32.0,81,30.45,10.0,NE,4.6,-,N/A,,Clear,40,2013-01-19 09:15:00
4:35 AM,37.6,32.0,80,30.44,10.0,NE,3.5,-,N/A,,Clear,40,2013-01-19 09:35:00
4:55 AM,37.4,32.0,81,30.44,10.0,ENE,3.5,-,N/A,,Clear,60,2013-01-19 09:55:00
5:15 AM,37.4,32.0,81,30.44,10.0,NE,4.6,-,N/A,,Clear,50,2013-01-19 10:15:00
5:35 AM,37.0,32.0,82,30.43,10.0,NE,3.5,-,N/A,,Clear,50,2013-01-19 10:35:00
8:55 AM,40.3,32.9,75,30.45,10.0,ENE,4.6,-,N/A,,Mostly Cloudy,60,2013-01-19 13:55:00
9:15 AM,43.2,33.6,69,30.46,10.0,East,4.6,-,N/A,,Mostly Cloudy,80,2013-01-19 14:15:00
9:35 AM,44.6,33.8,66,30.47,10.0,East,4.6,-,N/A,,Mostly Cloudy,90,2013-01-19 14:35:00
10:35 AM,51.1,36.3,57,30.46,10.0,East,5.8,-,N/A,,Scattered Clouds,90,2013-01-19 15:35:00
10:55 AM,52.5,37.6,57,30.45,10.0,ESE,6.9,-,N/A,,Mostly Cloudy,110,2013-01-19 15:55:00
11:15 AM,53.8,38.1,55,30.44,10.0,ESE,4.6,-,N/A,,Scattered Clouds,110,2013-01-19 16:15:00
11:35 AM,54.9,38.5,54,30.43,10.0,Calm,Calm,-,N/A,,Clear,0,2013-01-19 16:35:00
12:15 PM,57.9,40.6,53,30.40,10.0,ESE,4.6,-,N/A,,Mostly Cloudy,120,2013-01-19 17:15:00
12:35 PM,58.6,41.7,53,30.37,10.0,SE,3.5,-,N/A,,Overcast,130,2013-01-19 17:35:00
12:55 PM,58.8,42.1,54,30.37,10.0,ESE,3.5,-,N/A,,Mostly Cloudy,120,2013-01-19 17:55:00
1:15 PM,59.2,43.0,55,30.35,10.0,Calm,Calm,-,N/A,,Mostly Cloudy,0,2013-01-19 18:15:00
1:35 PM,59.9,43.7,55,30.34,10.0,Calm,Calm,-,N/A,,Overcast,0,2013-01-19 18:35:00
1:55 PM,59.4,43.9,57,30.32,10.0,Calm,Calm,-,N/A,,Overcast,0,2013-01-19 18:55:00
2:15 PM,61.0,44.8,55,30.32,10.0,Calm,Calm,-,N/A,,Overcast,0,2013-01-19 19:15:00
2:35 PM,61.5,45.1,55,30.31,10.0,Calm,Calm,-,N/A,,Mostly Cloudy,0,2013-01-19 19:35:00
2:55 PM,61.9,45.0,54,30.30,10.0,Calm,Calm,-,N/A,,Scattered Clouds,0,2013-01-19 19:55:00
3:15 PM,63.5,45.7,52,30.30,10.0,ENE,3.5,-,N/A,,Clear,60,2013-01-19 20:15:00
3:35 PM,62.4,45.7,54,30.29,10.0,Calm,Calm,-,N/A,,Mostly Cloudy,0,2013-01-19 20:35:00
3:55 PM,63.3,46.4,54,30.29,10.0,Calm,Calm,-,N/A,,Mostly Cloudy,0,2013-01-19 20:55:00
4:15 PM,63.1,46.8,55,30.28,10.0,Calm,Calm,-,N/A,,Scattered Clouds,0,2013-01-19 21:15:00
4:35 PM,62.6,46.8,56,30.28,10.0,Calm,Calm,-,N/A,,Clear,0,2013-01-19 21:35:00
4:55 PM,61.7,47.1,59,30.28,10.0,Calm,Calm,-,N/A,,Clear,0,2013-01-19 21:55:00
5:15 PM,61.7,47.3,59,30.28,10.0,Calm,Calm,-,N/A,,Scattered Clouds,0,2013-01-19 22:15:00
5:35 PM,57.9,48.2,70,30.28,10.0,Calm,Calm,-,N/A,,Scattered Clouds,0,2013-01-19 22:35:00
5:55 PM,55.8,48.6,77,30.28,10.0,Calm,Calm,-,N/A,,Clear,0,2013-01-19 22:55:00
6:15 PM,53.1,48.7,85,30.28,10.0,Calm,Calm,-,N/A,,Clear,0,2013-01-19 23:15:00
6:35 PM,51.8,48.7,89,30.28,10.0,Calm,Calm,-,N/A,,Clear,0,2013-01-19 23:35:00
6:55 PM,50.4,48.0,92,30.27,10.0,Calm,Calm,-,N/A,,Clear,0,2013-01-19 23:55:00
7:15 PM,49.3,47.3,93,30.28,10.0,Calm,Calm,-,N/A,,Clear,0,2013-01-20 00:15:00
7:35 PM,48.9,47.5,95,30.28,10.0,Calm,Calm,-,N/A,,Clear,0,2013-01-20 00:35:00
7:55 PM,49.1,47.7,95,30.28,10.0,Calm,Calm,-,N/A,,Clear,0,2013-01-20 00:55:00
8:15 PM,48.4,47.3,96,30.28,10.0,Calm,Calm,-,N/A,,Clear,0,2013-01-20 01:15:00
8:35 PM,47.3,46.2,96,30.28,10.0,Calm,Calm,-,N/A,,Clear,0,2013-01-20 01:35:00
8:55 PM,46.6,45.9,97,30.28,10.0,Calm,Calm,-,N/A,,Clear,0,2013-01-20 01:55:00
9:15 PM,46.8,46.4,99,30.28,10.0,Calm,Calm,-,N/A,,Clear,0,2013-01-20 02:15:00
9:55 PM,45.9,45.5,99,30.28,10.0,Calm,Calm,-,N/A,,Clear,0,2013-01-20 02:55:00
10:15 PM,45.3,44.8,98,30.28,10.0,Calm,Calm,-,N/A,,Clear,0,2013-01-20 03:15:00
10:35 PM,45.5,45.1,99,30.28,10.0,Calm,Calm,-,N/A,,Clear,0,2013-01-20 03:35:00
10:55 PM,45.0,44.8,99,30.27,10.0,Calm,Calm,-,N/A,,Clear,0,2013-01-20 03:55:00
11:15 PM,44.2,44.2,100,30.26,10.0,Calm,Calm,-,N/A,,Clear,0,2013-01-20 04:15:00
11:35 PM,43.9,43.7,99,30.25,7.0,Calm,Calm,-,N/A,,Clear,0,2013-01-20 04:35:00
11:55 PM,43.2,43.2,100,30.25,10.0,Calm,Calm,-,N/A,,Clear,0,2013-01-20 04:55:00